Time;durP1;ratioP1;P1;durP2;ratioP2;P2;SDS_P1;SDS_P2;PMS_P1;PMS_P2;Temp;Humidity;BMP_temperature;BMP_pressure;BME280_temperature;BME280_humidity;BME280_pressure;Samples;Min_cycle;Max_cycle;Signal;HPM_P1;HPM_P2
2021/03/31 00:02:01;;;;;;;15.82;8.90;;;14.90;46.20;;;;;;5073230;28;20107;-74
2021/03/31 00:04:27;;;;;;;16.25;9.02;;;14.90;46.00;;;;;;5074436;28;20095;-75
2021/03/31 00:06:53;;;;;;;18.67;8.93;;;14.90;46.00;;;;;;5073173;28;20055;-75
2021/03/31 00:09:19;;;;;;;18.92;10.20;;;14.90;46.00;;;;;;5073128;28;20127;-74
2021/03/31 00:11:44;;;;;;;16.85;9.30;;;14.80;45.90;;;;;;5073845;28;20032;-74
2021/03/31 00:14:15;;;;;;;15.65;8.80;;;14.90;45.90;;;;;;5073123;28;20039;-74
2021/03/31 00:16:41;;;;;;;17.50;9.65;;;14.80;45.90;;;;;;5074543;28;20048;-75
2021/03/31 00:19:06;;;;;;;18.02;10.02;;;14.80;45.90;;;;;;5073471;28;20491;-75
2021/03/31 00:21:32;;;;;;;17.85;9.35;;;14.80;45.90;;;;;;5073007;28;20020;-74
2021/03/31 00:23:58;;;;;;;18.98;8.90;;;14.70;45.90;;;;;;5074514;28;20032;-75
2021/03/31 00:26:24;;;;;;;16.50;9.10;;;14.70;46.00;;;;;;5072602;28;20052;-75
2021/03/31 00:28:50;;;;;;;17.83;9.68;;;14.70;46.00;;;;;;5074139;28;20464;-75
2021/03/31 00:31:16;;;;;;;17.85;8.95;;;14.70;45.90;;;;;;5072684;28;20082;-75
2021/03/31 00:33:41;;;;;;;21.08;10.25;;;14.70;46.00;;;;;;5072769;28;20021;-74
2021/03/31 00:36:07;;;;;;;18.08;10.65;;;14.60;45.90;;;;;;5072613;28;20069;-74
2021/03/31 00:38:33;;;;;;;17.58;9.18;;;14.60;45.90;;;;;;5072775;28;20116;-74
2021/03/31 00:41:00;;;;;;;19.02;9.70;;;14.60;45.90;;;;;;5072417;28;20127;-74
2021/03/31 00:43:25;;;;;;;19.38;10.10;;;14.60;46.60;;;;;;5073911;28;20043;-75
2021/03/31 00:45:51;;;;;;;17.30;9.55;;;14.60;45.90;;;;;;5072617;28;20433;-75
2021/03/31 00:48:17;;;;;;;17.05;9.25;;;14.60;46.00;;;;;;5072407;28;20031;-75
2021/03/31 00:50:55;;;;;;;18.63;9.15;;;14.50;46.00;;;;;;5073568;28;20055;-74
2021/03/31 00:53:27;;;;;;;19.10;9.73;;;14.50;46.00;;;;;;5072021;28;20032;-74
2021/03/31 00:55:53;;;;;;;16.02;8.80;;;14.50;46.10;;;;;;5072230;28;20025;-74
2021/03/31 00:58:19;;;;;;;15.60;8.63;;;14.50;46.10;;;;;;5073327;28;20040;-75
2021/03/31 01:00:45;;;;;;;18.98;9.82;;;14.40;46.10;;;;;;5072285;28;20037;-74
2021/03/31 01:03:11;;;;;;;17.05;9.30;;;14.40;46.10;;;;;;5073392;28;20036;-74
2021/03/31 01:05:37;;;;;;;21.15;9.88;;;14.40;46.10;;;;;;5073672;28;20036;-74
2021/03/31 01:08:03;;;;;;;16.48;9.00;;;14.40;46.20;;;;;;5073465;28;20064;-75
2021/03/31 01:10:39;;;;;;;19.52;9.93;;;14.40;46.20;;;;;;5073258;28;20033;-75
2021/03/31 01:13:20;;;;;;;19.80;10.25;;;14.30;46.20;;;;;;5071846;28;20047;-74
2021/03/31 01:16:14;;;;;;;19.70;9.50;;;14.30;46.20;;;;;;5073183;28;20032;-74
2021/03/31 01:18:39;;;;;;;21.20;9.80;;;14.30;46.30;;;;;;5071820;28;20047;-74
2021/03/31 01:21:29;;;;;;;16.80;9.25;;;14.30;46.30;;;;;;5071868;28;20024;-74
2021/03/31 01:24:35;;;;;;;18.90;9.95;;;14.30;46.30;;;;;;5071686;28;20468;-75
2021/03/31 01:27:13;;;;;;;21.08;10.30;;;14.20;46.40;;;;;;5071522;28;20084;-74
2021/03/31 01:30:07;;;;;;;17.73;9.57;;;14.20;46.40;;;;;;5071833;28;20533;-74
2021/03/31 01:32:33;;;;;;;;;;;14.10;46.40;;;;;;5071925;28;20024;-75
2021/03/31 01:35:03;;;;;;;17.30;9.07;;;14.10;46.60;;;;;;5071598;28;19908;-74
2021/03/31 01:37:31;;;;;;;19.98;9.40;;;14.10;46.70;;;;;;5073045;28;20024;-74
2021/03/31 01:39:59;;;;;;;18.88;9.32;;;14.00;46.70;;;;;;5072756;28;20070;-74
2021/03/31 01:42:30;;;;;;;17.27;9.00;;;14.00;46.80;;;;;;5071599;28;20067;-74
2021/03/31 01:45:02;;;;;;;19.33;9.63;;;13.90;46.80;;;;;;5073123;28;20056;-74
2021/03/31 01:47:31;;;;;;;18.92;9.48;;;13.90;47.50;;;;;;5072717;28;20027;-74
2021/03/31 01:50:00;;;;;;;20.90;10.15;;;13.90;47.00;;;;;;5072105;28;20020;-74
2021/03/31 01:52:27;;;;;;;20.33;10.20;;;13.80;47.00;;;;;;5071627;28;20109;-74
2021/03/31 01:54:54;;;;;;;17.70;9.98;;;13.80;47.10;;;;;;5071510;28;20025;-74
2021/03/31 01:57:23;;;;;;;18.58;10.02;;;13.80;47.20;;;;;;5073131;28;20021;-74
2021/03/31 01:59:51;;;;;;;19.33;9.85;;;13.80;47.20;;;;;;5072861;28;20021;-74
2021/03/31 02:02:18;;;;;;;20.30;10.25;;;13.70;47.20;;;;;;5072706;28;20020;-74
2021/03/31 02:04:45;;;;;;;17.55;9.68;;;13.70;47.30;;;;;;5075537;28;20027;-75
2021/03/31 02:07:11;;;;;;;17.75;9.30;;;13.60;47.40;;;;;;5077297;28;20028;-74
2021/03/31 02:09:41;;;;;;;19.90;9.73;;;13.60;47.40;;;;;;5076745;28;20021;-74
2021/03/31 02:12:11;;;;;;;18.63;10.30;;;13.60;47.50;;;;;;5076525;28;20043;-74
2021/03/31 02:14:39;;;;;;;19.85;10.10;;;13.60;47.60;;;;;;5076791;28;20372;-74
2021/03/31 02:17:08;;;;;;;17.77;9.82;;;13.50;47.60;;;;;;5075227;28;20019;-74
2021/03/31 02:19:36;;;;;;;16.27;9.27;;;13.50;47.70;;;;;;5075249;28;20017;-74
2021/03/31 02:22:03;;;;;;;21.35;10.57;;;13.50;47.80;;;;;;5075315;28;20123;-74
2021/03/31 02:24:30;;;;;;;17.83;9.68;;;13.40;47.80;;;;;;5075281;28;20556;-74
2021/03/31 02:26:55;;;;;;;19.73;10.45;;;13.40;47.90;;;;;;5075294;28;20026;-74
2021/03/31 02:29:21;;;;;;;21.00;10.77;;;13.40;48.00;;;;;;5075147;28;20462;-75
2021/03/31 02:31:47;;;;;;;18.90;10.10;;;13.30;48.00;;;;;;5075104;28;20111;-74
2021/03/31 02:34:14;;;;;;;18.90;10.75;;;13.30;48.00;;;;;;5074921;28;20021;-74
2021/03/31 02:36:40;;;;;;;19.70;11.07;;;13.30;48.10;;;;;;5074932;28;20028;-74
2021/03/31 02:39:09;;;;;;;22.23;10.27;;;13.20;48.10;;;;;;5076305;28;20097;-75
2021/03/31 02:41:39;;;;;;;19.25;9.68;;;13.20;48.20;;;;;;5074816;28;20047;-74
2021/03/31 02:44:05;;;;;;;20.83;10.30;;;13.20;48.20;;;;;;5074913;28;20020;-74
2021/03/31 02:46:34;;;;;;;16.98;9.88;;;13.20;48.20;;;;;;5074711;28;20484;-74
2021/03/31 02:49:01;;;;;;;18.10;10.02;;;13.10;48.30;;;;;;5076110;28;20103;-74
2021/03/31 02:51:30;;;;;;;19.17;9.77;;;13.10;48.20;;;;;;5074467;28;20033;-74
2021/03/31 02:53:56;;;;;;;19.80;11.27;;;13.10;48.20;;;;;;5074487;28;20025;-74
2021/03/31 02:56:22;;;;;;;19.58;10.55;;;13.10;48.30;;;;;;5074558;28;20426;-75
2021/03/31 02:58:48;;;;;;;17.08;9.68;;;13.00;48.30;;;;;;5074508;28;20046;-74
2021/03/31 03:01:14;;;;;;;20.55;10.60;;;13.00;48.40;;;;;;5074289;28;20043;-74
2021/03/31 03:03:41;;;;;;;19.38;10.68;;;13.00;48.50;;;;;;5074451;28;20029;-74
2021/03/31 03:06:07;;;;;;;18.58;10.18;;;12.90;48.50;;;;;;5074302;28;20462;-74
2021/03/31 03:08:33;;;;;;;18.48;10.48;;;12.90;48.50;;;;;;5074245;28;20025;-75
2021/03/31 03:11:03;;;;;;;19.55;10.38;;;12.90;48.60;;;;;;5075584;28;20035;-74
2021/03/31 03:13:31;;;;;;;22.00;10.73;;;12.90;48.80;;;;;;5074018;28;20073;-74
2021/03/31 03:15:58;;;;;;;20.20;10.38;;;12.80;48.80;;;;;;5075342;28;20113;-74
2021/03/31 03:18:24;;;;;;;22.10;10.77;;;12.80;49.00;;;;;;5074068;28;20012;-74
2021/03/31 03:20:51;;;;;;;20.73;10.85;;;12.80;49.10;;;;;;5074147;28;20119;-75
2021/03/31 03:23:19;;;;;;;21.80;11.00;;;12.70;49.20;;;;;;5075265;28;20028;-74
2021/03/31 03:25:49;;;;;;;18.58;10.43;;;12.70;49.40;;;;;;5073921;28;20099;-74
2021/03/31 03:28:20;;;;;;;21.50;11.30;;;12.60;49.50;;;;;;5075244;28;20021;-75
2021/03/31 03:30:48;;;;;;;23.75;11.15;;;12.60;49.50;;;;;;5074002;28;20036;-74
2021/03/31 03:33:15;;;;;;;20.55;10.52;;;12.60;49.70;;;;;;5073939;28;20056;-74
2021/03/31 03:35:41;;;;;;;22.42;12.45;;;12.50;49.80;;;;;;5075599;28;20025;-74
2021/03/31 03:38:07;;;;;;;21.83;10.98;;;12.50;49.80;;;;;;5075251;28;20025;-74
2021/03/31 03:40:33;;;;;;;19.50;10.95;;;12.50;50.00;;;;;;5075248;28;20082;-74
2021/03/31 03:42:58;;;;;;;20.30;11.77;;;12.40;50.10;;;;;;5073970;28;20028;-75
2021/03/31 03:45:25;;;;;;;20.25;10.75;;;12.40;50.30;;;;;;5075181;28;20047;-75
2021/03/31 03:47:52;;;;;;;21.83;11.25;;;12.30;50.30;;;;;;5073901;28;20041;-75
2021/03/31 03:50:19;;;;;;;17.95;10.15;;;12.30;50.50;;;;;;5073715;28;20028;-75
2021/03/31 03:52:48;;;;;;;20.80;11.68;;;12.30;50.60;;;;;;5074762;28;20393;-75
2021/03/31 03:55:19;;;;;;;20.67;11.43;;;12.20;50.70;;;;;;5073672;28;20115;-75
2021/03/31 03:57:45;;;;;;;21.85;11.63;;;12.20;50.90;;;;;;5074855;28;20025;-75
2021/03/31 04:00:13;;;;;;;20.38;11.20;;;12.10;50.90;;;;;;5073459;28;20384;-75
2021/03/31 04:02:39;;;;;;;20.85;11.43;;;12.10;51.00;;;;;;5074970;28;20029;-74
2021/03/31 04:05:06;;;;;;;20.25;11.02;;;12.10;51.10;;;;;;5073431;28;20189;-75
2021/03/31 04:07:31;;;;;;;20.92;10.95;;;12.00;51.20;;;;;;5074630;28;20590;-74
2021/03/31 04:09:58;;;;;;;20.83;10.50;;;12.00;51.30;;;;;;5073329;28;20058;-75
2021/03/31 04:12:24;;;;;;;21.05;11.13;;;12.00;51.40;;;;;;5074965;28;20035;-75
2021/03/31 04:14:49;;;;;;;18.88;10.98;;;12.00;51.40;;;;;;5074588;28;20017;-76
2021/03/31 04:17:17;;;;;;;20.70;11.70;;;12.00;51.50;;;;;;5073204;28;20078;-75
2021/03/31 04:19:46;;;;;;;18.55;10.90;;;11.90;51.50;;;;;;5074946;28;20366;-75
2021/03/31 04:22:11;;;;;;;20.42;11.02;;;11.90;51.60;;;;;;5073056;28;20027;-75
2021/03/31 04:24:38;;;;;;;31.73;12.00;;;11.90;51.70;;;;;;5072903;28;20108;-74
2021/03/31 04:27:06;;;;;;;22.05;11.30;;;11.80;51.70;;;;;;5072253;28;20028;-75
2021/03/31 04:29:33;;;;;;;21.48;11.95;;;11.80;51.80;;;;;;5072805;28;20540;-74
2021/03/31 04:31:59;;;;;;;21.15;11.32;;;11.80;51.90;;;;;;5072714;28;20032;-74
2021/03/31 04:34:25;;;;;;;21.70;11.20;;;11.80;52.00;;;;;;5074029;28;20028;-75
2021/03/31 04:36:51;;;;;;;20.30;11.25;;;11.70;52.00;;;;;;5074047;28;20368;-75
2021/03/31 04:39:17;;;;;;;22.75;11.70;;;11.70;52.20;;;;;;5073894;28;20104;-75
2021/03/31 04:41:43;;;;;;;23.67;12.15;;;11.70;52.30;;;;;;5072443;28;20037;-75
2021/03/31 04:44:09;;;;;;;20.80;11.75;;;11.70;52.50;;;;;;5073878;28;20573;-75
2021/03/31 04:46:35;;;;;;;20.95;11.82;;;11.60;52.60;;;;;;5073885;28;20031;-74
2021/03/31 04:49:00;;;;;;;23.85;12.07;;;11.60;53.40;;;;;;5073752;28;20036;-74
2021/03/31 04:51:26;;;;;;;23.52;12.23;;;11.60;52.90;;;;;;5072318;28;20029;-74
2021/03/31 04:53:52;;;;;;;22.30;11.05;;;11.50;53.10;;;;;;5074218;28;20040;-74
2021/03/31 04:56:18;;;;;;;21.30;11.77;;;11.50;53.20;;;;;;5073177;28;20017;-75
2021/03/31 04:58:43;;;;;;;20.42;11.95;;;11.50;53.40;;;;;;5073484;28;20090;-74
2021/03/31 05:01:09;;;;;;;21.98;11.63;;;11.50;53.50;;;;;;5072287;28;20404;-75
2021/03/31 05:03:35;;;;;;;23.50;12.43;;;11.40;53.50;;;;;;5073765;28;20387;-74
2021/03/31 05:06:00;;;;;;;22.80;11.10;;;11.40;53.70;;;;;;5073599;28;20061;-75
2021/03/31 05:08:26;;;;;;;21.42;11.48;;;11.40;53.80;;;;;;5073562;28;20040;-75
2021/03/31 05:10:52;;;;;;;21.30;11.95;;;11.30;53.80;;;;;;5073347;28;20028;-74
2021/03/31 05:13:17;;;;;;;22.65;12.32;;;11.30;53.90;;;;;;5073233;28;20471;-75
2021/03/31 05:15:43;;;;;;;23.45;11.93;;;11.30;54.10;;;;;;5072065;28;20028;-74
2021/03/31 05:18:09;;;;;;;21.55;11.35;;;11.30;54.10;;;;;;5073677;28;20372;-75
2021/03/31 05:20:35;;;;;;;21.42;11.48;;;11.20;54.20;;;;;;5073470;28;20021;-72
2021/03/31 05:23:01;;;;;;;20.50;11.80;;;11.20;54.30;;;;;;5071948;28;20110;-73
2021/03/31 05:25:27;;;;;;;19.67;11.48;;;11.20;54.40;;;;;;5073718;28;20064;-73
2021/03/31 05:27:56;;;;;;;24.55;11.75;;;11.10;54.40;;;;;;5073242;28;20048;-73
2021/03/31 05:30:23;;;;;;;20.08;11.60;;;11.10;54.50;;;;;;5072989;28;20036;-73
2021/03/31 05:32:48;;;;;;;23.17;11.75;;;11.10;54.60;;;;;;5073036;28;20032;-75
2021/03/31 05:35:14;;;;;;;20.85;11.63;;;11.10;54.60;;;;;;5071551;28;20066;-73
2021/03/31 05:37:40;;;;;;;22.83;11.63;;;11.10;54.70;;;;;;5071558;28;20380;-74
2021/03/31 05:40:07;;;;;;;21.77;11.25;;;11.00;54.70;;;;;;5071610;28;20090;-75
2021/03/31 05:42:34;;;;;;;21.13;12.32;;;11.10;54.90;;;;;;5072865;28;20063;-72
2021/03/31 05:45:00;;;;;;;20.02;12.02;;;11.10;55.00;;;;;;5073525;28;20464;-73
2021/03/31 05:49:53;;;;;;;21.02;11.95;;;11.10;55.50;;;;;;5073519;28;20107;-75
2021/03/31 05:52:19;;;;;;;22.10;11.73;;;11.10;55.50;;;;;;5071448;28;20033;-74
2021/03/31 05:54:44;;;;;;;21.08;11.77;;;11.10;55.50;;;;;;5071213;28;20028;-73
2021/03/31 06:00:33;;;;;;;21.27;11.32;;;11.20;55.70;;;;;;5072605;28;20062;-73
2021/03/31 06:03:03;;;;;;;22.52;11.63;;;11.20;55.60;;;;;;5071261;28;20047;-74
2021/03/31 06:05:31;;;;;;;22.13;12.40;;;11.20;55.70;;;;;;5071510;28;20039;-75
2021/03/31 06:07:57;;;;;;;20.80;12.07;;;11.30;55.70;;;;;;5072599;28;20035;-73
2021/03/31 06:10:28;;;;;;;19.88;11.73;;;11.30;55.70;;;;;;5071192;28;20029;-73
2021/03/31 06:13:03;;;;;;;25.20;13.07;;;11.30;55.70;;;;;;5071186;28;20025;-74
2021/03/31 06:15:38;;;;;;;20.80;11.82;;;11.30;55.80;;;;;;5072590;28;20021;-74
2021/03/31 06:18:07;;;;;;;21.70;11.38;;;11.40;55.80;;;;;;5071120;28;20021;-74
2021/03/31 06:20:43;;;;;;;20.92;11.48;;;11.40;55.80;;;;;;5072545;28;20107;-74
2021/03/31 06:24:19;;;;;;;22.13;12.57;;;11.40;55.80;;;;;;5071337;28;20040;-73
2021/03/31 06:26:39;;;;;;;21.58;11.55;;;11.40;55.70;;;;;;5068479;28;20119;-74
2021/03/31 06:29:07;;;;;;;20.60;12.23;;;11.50;55.80;;;;;;5072590;28;20425;-74
2021/03/31 06:31:39;;;;;;;19.77;11.32;;;11.60;55.80;;;;;;5071213;28;20440;-74
2021/03/31 06:34:09;;;;;;;22.35;11.60;;;11.60;55.80;;;;;;5071053;28;20033;-74
2021/03/31 06:36:40;;;;;;;21.13;12.02;;;11.60;55.80;;;;;;5072466;28;20027;-73
2021/03/31 06:39:35;;;;;;;19.90;11.00;;;11.70;55.80;;;;;;5072306;28;20029;-74
2021/03/31 06:42:15;;;;;;;22.95;11.13;;;11.80;55.80;;;;;;5070952;28;20056;-74
2021/03/31 06:47:30;;;;;;;20.98;11.57;;;11.90;55.60;;;;;;5072466;28;20027;-74
2021/03/31 06:49:58;;;;;;;21.50;11.48;;;11.90;55.60;;;;;;5071995;28;20021;-74
2021/03/31 06:52:24;;;;;;;21.25;11.45;;;12.00;55.70;;;;;;5075596;28;20037;-74
2021/03/31 06:54:52;;;;;;;21.73;10.63;;;12.00;55.60;;;;;;5074367;28;20104;-74
2021/03/31 06:57:30;;;;;;;20.35;11.18;;;12.10;55.40;;;;;;5075768;28;20048;-74
2021/03/31 06:59:57;;;;;;;22.92;10.48;;;12.20;55.30;;;;;;5074230;28;20438;-74
2021/03/31 07:02:26;;;;;;;21.67;10.40;;;12.20;55.10;;;;;;5075574;28;20028;-75
2021/03/31 07:04:53;;;;;;;24.45;10.55;;;12.30;55.10;;;;;;5075516;28;20035;-74
2021/03/31 07:07:34;;;;;;;18.60;10.63;;;12.40;55.00;;;;;;5074348;28;20500;-74
2021/03/31 07:10:13;;;;;;;20.23;10.43;;;12.40;54.90;;;;;;5076033;28;20457;-74
2021/03/31 07:12:38;;;;;;;17.77;10.50;;;12.50;54.80;;;;;;5074235;28;20036;-75
2021/03/31 07:15:06;;;;;;;16.67;9.98;;;12.60;54.70;;;;;;5074609;28;20032;-75
2021/03/31 07:17:32;;;;;;;18.10;9.93;;;12.60;54.50;;;;;;5075233;28;20020;-75
2021/03/31 07:19:59;;;;;;;20.52;10.57;;;12.70;54.40;;;;;;5074049;28;20028;-74
2021/03/31 07:22:25;;;;;;;20.25;10.35;;;12.80;54.20;;;;;;5073919;28;20043;-75
2021/03/31 07:24:55;;;;;;;16.77;9.13;;;12.80;54.10;;;;;;5075181;28;20032;-75
2021/03/31 07:27:23;;;;;;;18.77;9.90;;;12.90;53.90;;;;;;5073906;28;20025;-75
2021/03/31 07:30:05;;;;;;;15.50;9.05;;;13.00;53.80;;;;;;5073667;28;20035;-75
2021/03/31 07:32:39;;;;;;;13.23;8.80;;;13.10;53.70;;;;;;5074890;28;20129;-75
2021/03/31 07:35:05;;;;;;;15.20;9.00;;;13.20;53.50;;;;;;5075026;28;20044;-75
2021/03/31 07:37:32;;;;;;;18.42;9.85;;;13.20;53.30;;;;;;5073572;28;20025;-75
2021/03/31 07:40:00;;;;;;;18.48;9.50;;;13.30;53.10;;;;;;5073479;28;20021;-75
2021/03/31 07:42:27;;;;;;;16.52;9.57;;;13.40;53.00;;;;;;5073645;28;20028;-75
2021/03/31 07:44:54;;;;;;;17.65;9.38;;;13.40;52.80;;;;;;5073577;28;20545;-76
2021/03/31 07:47:21;;;;;;;14.80;9.85;;;13.50;52.70;;;;;;5074787;28;20111;-75
2021/03/31 07:49:48;;;;;;;15.38;9.60;;;13.60;52.50;;;;;;5074734;28;20016;-75
2021/03/31 07:52:14;;;;;;;18.15;9.73;;;13.70;52.40;;;;;;5075032;28;20028;-75
2021/03/31 07:54:39;;;;;;;17.75;9.65;;;13.70;52.30;;;;;;5074620;28;20111;-74
2021/03/31 07:57:28;;;;;;;16.48;9.75;;;13.80;52.20;;;;;;5073111;28;20028;-75
2021/03/31 07:59:54;;;;;;;13.40;9.20;;;14.00;52.10;;;;;;5072844;28;20028;-76
2021/03/31 08:02:25;;;;;;;16.92;9.45;;;14.00;52.00;;;;;;5071860;28;20025;-77
2021/03/31 08:05:05;;;;;;;16.80;8.93;;;14.10;51.90;;;;;;5072737;28;20086;-77
2021/03/31 08:07:31;;;;;;;13.15;8.20;;;14.20;51.80;;;;;;5074166;28;20031;-77
2021/03/31 08:10:45;;;;;;;15.18;9.05;;;14.30;51.80;;;;;;5072980;28;20107;-76
2021/03/31 08:13:45;;;;;;;13.13;8.63;;;14.40;51.70;;;;;;5073713;28;20041;-76
2021/03/31 08:16:34;;;;;;;16.77;8.75;;;14.50;51.60;;;;;;5073617;28;20279;-76
2021/03/31 08:19:02;;;;;;;13.20;8.50;;;14.60;51.50;;;;;;5074286;28;20024;-75
2021/03/31 08:21:30;;;;;;;17.73;8.95;;;14.60;51.40;;;;;;5073161;28;20055;-75
2021/03/31 08:23:57;;;;;;;18.05;9.35;;;14.70;51.30;;;;;;5072614;28;20042;-76
2021/03/31 08:26:43;;;;;;;14.55;8.38;;;14.80;51.30;;;;;;5072251;28;20025;-76
2021/03/31 08:29:18;;;;;;;14.90;8.88;;;14.90;51.20;;;;;;5073700;28;20068;-75
2021/03/31 08:31:45;;;;;;;16.45;8.90;;;15.00;51.00;;;;;;5072214;28;20033;-76
2021/03/31 08:34:12;;;;;;;14.70;9.73;;;15.00;50.80;;;;;;5072209;28;20369;-75
2021/03/31 08:36:39;;;;;;;15.70;9.48;;;15.10;50.80;;;;;;5072573;28;20400;-76
2021/03/31 08:39:10;;;;;;;15.57;9.18;;;15.20;50.60;;;;;;5073680;28;20031;-76
2021/03/31 08:41:41;;;;;;;16.02;9.27;;;15.30;50.60;;;;;;5073028;28;20036;-75
2021/03/31 08:44:22;;;;;;;13.25;9.05;;;15.40;50.50;;;;;;5072053;28;20025;-76
2021/03/31 08:46:48;;;;;;;15.73;9.63;;;15.50;50.50;;;;;;5071779;28;20051;-75
2021/03/31 08:49:28;;;;;;;19.10;9.25;;;15.50;50.30;;;;;;5071870;28;20025;-76
2021/03/31 08:52:00;;;;;;;14.23;8.27;;;15.60;50.20;;;;;;5071714;28;20032;-76
2021/03/31 08:54:35;;;;;;;16.00;9.52;;;15.60;50.10;;;;;;5071905;28;20040;-77
2021/03/31 08:57:02;;;;;;;15.60;9.27;;;15.70;50.10;;;;;;5073148;28;20032;-76
2021/03/31 08:59:36;;;;;;;17.35;9.60;;;15.70;50.00;;;;;;5071642;28;20028;-76
2021/03/31 09:02:03;;;;;;;14.25;9.00;;;15.80;50.00;;;;;;5072921;28;20028;-75
2021/03/31 09:04:31;;;;;;;14.30;9.43;;;15.90;49.90;;;;;;5071443;28;20040;-76
2021/03/31 09:06:58;;;;;;;13.15;8.95;;;16.00;49.90;;;;;;5071760;28;20055;-76
2021/03/31 09:09:24;;;;;;;14.57;8.77;;;16.10;49.80;;;;;;5072901;28;20043;-75
2021/03/31 09:12:00;;;;;;;16.48;9.80;;;16.10;49.70;;;;;;5072818;28;20388;-75
2021/03/31 09:14:27;;;;;;;12.85;8.07;;;16.20;49.60;;;;;;5071321;28;20028;-75
2021/03/31 09:16:59;;;;;;;13.82;8.85;;;16.30;49.60;;;;;;5071444;28;20028;-76
2021/03/31 09:19:28;;;;;;;13.50;8.23;;;16.40;49.40;;;;;;5071599;28;20071;-76
2021/03/31 09:21:54;;;;;;;14.52;8.68;;;16.50;49.30;;;;;;5071673;28;20021;-76
2021/03/31 09:24:23;;;;;;;14.85;9.32;;;16.60;49.30;;;;;;5071626;28;20553;-75
2021/03/31 09:26:57;;;;;;;15.70;9.32;;;16.70;49.20;;;;;;5073592;28;20037;-75
2021/03/31 09:29:25;;;;;;;15.82;8.85;;;16.70;49.00;;;;;;5071936;28;20498;-75
2021/03/31 09:31:51;;;;;;;15.68;9.50;;;16.90;49.00;;;;;;5072710;28;20043;-76
2021/03/31 09:34:18;;;;;;;14.30;8.95;;;17.00;48.90;;;;;;5071112;28;20111;-77
2021/03/31 09:37:22;;;;;;;15.52;9.35;;;17.20;48.80;;;;;;5072407;28;20032;-76
2021/03/31 09:39:56;;;;;;;;;;;17.30;48.60;;;;;;5070476;28;20500;-75
2021/03/31 09:42:24;;;;;;;13.00;8.55;;;17.40;48.60;;;;;;5071117;28;19920;-75
2021/03/31 09:44:52;;;;;;;14.13;8.93;;;17.50;48.40;;;;;;5071160;28;20165;-75
2021/03/31 09:47:21;;;;;;;16.88;9.32;;;17.60;48.30;;;;;;5072703;28;20045;-75
2021/03/31 09:49:49;;;;;;;15.82;10.05;;;17.70;48.20;;;;;;5072514;28;20020;-76
2021/03/31 09:52:16;;;;;;;13.95;9.65;;;17.80;48.10;;;;;;5072711;28;20150;-75
2021/03/31 09:54:45;;;;;;;15.60;10.45;;;17.90;48.00;;;;;;5072661;28;20478;-75
2021/03/31 09:57:13;;;;;;;16.13;9.63;;;18.00;47.80;;;;;;5070780;28;20121;-76
2021/03/31 09:59:40;;;;;;;20.55;9.93;;;18.10;47.80;;;;;;5072367;28;20079;-75
2021/03/31 10:02:08;;;;;;;16.83;9.13;;;18.20;47.70;;;;;;5071077;28;20062;-75
2021/03/31 10:04:38;;;;;;;13.82;9.13;;;18.30;47.50;;;;;;5070897;28;20028;-75
2021/03/31 10:07:15;;;;;;;13.52;8.57;;;18.40;47.40;;;;;;5072551;28;20021;-74
2021/03/31 10:09:46;;;;;;;13.23;7.93;;;18.50;47.30;;;;;;5070885;28;20115;-75
2021/03/31 10:12:20;;;;;;;13.60;8.77;;;18.50;47.20;;;;;;5070624;28;20055;-74
2021/03/31 10:14:48;;;;;;;15.63;9.05;;;18.70;47.10;;;;;;5072244;28;20029;-75
2021/03/31 10:17:19;;;;;;;13.20;8.73;;;18.70;47.00;;;;;;5072122;28;20129;-75
2021/03/31 10:19:45;;;;;;;14.45;8.90;;;18.80;46.80;;;;;;5069581;28;20021;-73
2021/03/31 10:22:12;;;;;;;14.45;8.85;;;18.90;46.70;;;;;;5072014;28;20017;-73
2021/03/31 10:24:48;;;;;;;15.00;8.82;;;19.00;46.50;;;;;;5072823;28;20024;-73
2021/03/31 10:27:18;;;;;;;16.02;10.13;;;19.10;46.30;;;;;;5074625;28;20476;-73
2021/03/31 10:29:53;;;;;;;16.13;9.40;;;19.10;46.00;;;;;;5074662;28;20021;-74
2021/03/31 10:32:21;;;;;;;12.23;8.03;;;19.20;46.00;;;;;;5076021;28;20545;-73
2021/03/31 10:34:51;;;;;;;14.63;9.05;;;19.30;45.90;;;;;;5076490;28;20457;-73
2021/03/31 10:37:39;;;;;;;14.65;8.10;;;19.40;45.70;;;;;;5074594;28;20017;-73
2021/03/31 10:51:21;;;;;;;13.73;8.65;;;19.90;45.00;;;;;;5075541;28;20032;-73
2021/03/31 10:53:55;;;;;;;12.05;7.75;;;19.90;44.90;;;;;;5074386;28;20181;-73
2021/03/31 10:56:22;;;;;;;13.70;8.50;;;20.00;44.90;;;;;;5074362;28;20027;-74
2021/03/31 10:58:48;;;;;;;12.75;8.52;;;20.10;44.70;;;;;;5074204;28;20127;-74
2021/03/31 11:01:14;;;;;;;14.93;9.10;;;20.10;44.50;;;;;;5075999;28;20029;-74
2021/03/31 11:03:40;;;;;;;16.40;9.27;;;20.20;44.30;;;;;;5075462;28;20361;-73
2021/03/31 11:06:06;;;;;;;16.88;9.07;;;20.30;44.80;;;;;;5075499;28;20024;-74
2021/03/31 11:08:32;;;;;;;13.10;8.38;;;20.30;44.00;;;;;;5074126;28;20028;-73
2021/03/31 11:10:58;;;;;;;13.63;8.48;;;20.30;43.90;;;;;;5075026;28;20051;-74
2021/03/31 11:13:23;;;;;;;18.08;9.25;;;20.50;43.80;;;;;;5075104;28;20460;-75
2021/03/31 11:15:52;;;;;;;14.70;9.15;;;20.50;43.60;;;;;;5074984;28;20048;-74
2021/03/31 11:18:25;;;;;;;13.85;9.02;;;20.60;43.60;;;;;;5073701;28;20074;-74
2021/03/31 11:21:25;;;;;;;14.15;9.07;;;20.70;43.50;;;;;;5073599;28;20020;-73
2021/03/31 11:26:35;;;;;;;15.27;8.52;;;20.90;43.20;;;;;;5075128;28;20056;-74
2021/03/31 11:29:01;;;;;;;11.65;7.78;;;20.90;43.10;;;;;;5073454;28;20028;-73
2021/03/31 11:31:27;;;;;;;12.27;8.40;;;21.00;43.00;;;;;;5073539;28;20060;-72
2021/03/31 11:33:53;;;;;;;12.68;8.73;;;21.10;42.80;;;;;;5075009;28;20395;-73
2021/03/31 11:36:19;;;;;;;14.98;9.23;;;21.20;42.60;;;;;;5073551;28;20474;-73
2021/03/31 11:38:45;;;;;;;14.32;8.50;;;21.30;42.40;;;;;;5073349;28;20115;-73
2021/03/31 11:41:11;;;;;;;12.13;8.68;;;21.40;42.40;;;;;;5074579;28;20161;-73
2021/03/31 11:43:37;;;;;;;12.90;7.90;;;21.40;42.20;;;;;;5073207;28;20027;-73
2021/03/31 11:46:03;;;;;;;14.75;8.77;;;21.50;42.10;;;;;;5073242;28;20024;-74
2021/03/31 11:48:29;;;;;;;16.38;8.77;;;21.60;42.00;;;;;;5074494;28;20101;-74
2021/03/31 11:50:54;;;;;;;14.73;8.52;;;21.60;41.80;;;;;;5073139;28;20071;-74
2021/03/31 11:53:20;;;;;;;11.15;7.15;;;21.70;41.50;;;;;;5073036;28;20025;-74
2021/03/31 11:55:46;;;;;;;12.00;8.05;;;21.80;41.30;;;;;;5072920;28;20102;-75
2021/03/31 11:58:12;;;;;;;16.55;8.60;;;21.90;41.20;;;;;;5072933;28;20302;-75
2021/03/31 12:00:37;;;;;;;11.95;7.95;;;21.90;40.90;;;;;;5072927;28;20382;-74
2021/03/31 12:03:04;;;;;;;12.30;7.25;;;22.00;40.80;;;;;;5073841;28;20104;-75
2021/03/31 12:05:30;;;;;;;14.00;8.65;;;22.10;40.70;;;;;;5072429;28;20024;-75
2021/03/31 12:07:56;;;;;;;14.98;8.18;;;22.20;40.20;;;;;;5074043;28;20021;-75
2021/03/31 12:10:22;;;;;;;12.52;8.02;;;22.20;40.00;;;;;;5072725;28;20484;-75
2021/03/31 12:12:47;;;;;;;16.13;9.30;;;22.20;39.80;;;;;;5073820;28;20028;-76
2021/03/31 12:15:13;;;;;;;14.32;8.35;;;22.20;39.60;;;;;;5073895;28;20465;-74
2021/03/31 12:17:40;;;;;;;12.05;7.70;;;22.30;39.60;;;;;;5073699;28;20025;-75
2021/03/31 12:20:08;;;;;;;11.00;7.97;;;22.30;39.50;;;;;;5072764;28;20024;-75
2021/03/31 12:22:34;;;;;;;11.43;7.53;;;22.30;39.30;;;;;;5072329;28;20021;-75
2021/03/31 12:24:59;;;;;;;12.07;8.05;;;22.40;39.30;;;;;;5073968;28;20023;-74
2021/03/31 12:27:25;;;;;;;14.02;8.90;;;22.50;39.10;;;;;;5072301;28;20017;-75
2021/03/31 12:29:51;;;;;;;14.23;9.13;;;22.50;38.70;;;;;;5074109;28;20116;-75
2021/03/31 12:32:18;;;;;;;15.70;8.93;;;22.50;38.50;;;;;;5074003;28;20020;-74
2021/03/31 12:34:44;;;;;;;12.27;8.50;;;22.60;38.20;;;;;;5073761;28;20032;-75
2021/03/31 12:37:13;;;;;;;14.95;9.30;;;22.60;38.30;;;;;;5073451;28;20025;-74
2021/03/31 12:39:40;;;;;;;15.07;9.15;;;22.70;38.20;;;;;;5072192;28;20017;-75
2021/03/31 12:42:05;;;;;;;17.45;10.65;;;22.70;38.20;;;;;;5073288;28;20048;-75
2021/03/31 12:44:31;;;;;;;14.93;9.30;;;22.80;37.90;;;;;;5072164;28;20070;-75
2021/03/31 12:46:57;;;;;;;13.27;8.60;;;22.80;38.10;;;;;;5073068;28;20024;-75
2021/03/31 12:49:23;;;;;;;13.55;8.95;;;22.80;38.20;;;;;;5072025;28;20085;-75
2021/03/31 12:51:54;;;;;;;16.38;9.48;;;23.00;38.30;;;;;;5073541;28;20032;-74
2021/03/31 12:54:25;;;;;;;13.95;8.88;;;23.10;38.30;;;;;;5072455;28;20142;-75
2021/03/31 12:56:51;;;;;;;16.50;10.07;;;23.10;38.10;;;;;;5071810;28;20016;-75
2021/03/31 12:59:17;;;;;;;14.23;9.65;;;23.20;37.90;;;;;;5073502;28;20554;-75
2021/03/31 13:01:43;;;;;;;16.20;9.82;;;23.20;38.00;;;;;;5071945;28;20509;-75
2021/03/31 13:04:09;;;;;;;17.35;11.15;;;23.30;37.90;;;;;;5073368;28;20086;-74
2021/03/31 13:06:37;;;;;;;16.30;11.00;;;23.30;37.60;;;;;;5072025;28;20028;-75